Time;durP1;ratioP1;P1;durP2;ratioP2;P2;SDS_P1;SDS_P2;PMS_P1;PMS_P2;Temp;Humidity;BMP_temperature;BMP_pressure;BME280_temperature;BME280_humidity;BME280_pressure;Samples;Min_cycle;Max_cycle;Signal;HPM_P1;HPM_P2
2022/07/09 00:00:23;;;;;;;12.63;10.40;;;;;;;;;;2081369;28;20192;-53
2022/07/09 00:01:23;;;;;;;12.35;9.98;;;;;;;;;;2081468;28;20206;-57
2022/07/09 00:02:24;;;;;;;13.80;10.27;;;;;;;;;;2072461;28;20289;-52
2022/07/09 00:03:24;;;;;;;13.25;9.35;;;;;;;;;;2064415;28;20199;-56
2022/07/09 00:04:24;;;;;;;15.40;10.38;;;;;;;;;;2079755;28;20169;-52
2022/07/09 00:05:25;;;;;;;10.55;9.60;;;;;;;;;;2081486;28;20161;-56
2022/07/09 00:06:25;;;;;;;14.10;10.40;;;;;;;;;;2081371;28;20168;-54
2022/07/09 00:07:26;;;;;;;16.75;10.32;;;;;;;;;;2081679;28;20283;-52
2022/07/09 00:08:26;;;;;;;12.27;10.23;;;;;;;;;;2081433;28;20164;-52
2022/07/09 00:09:27;;;;;;;11.65;9.57;;;;;;;;;;2081169;28;20173;-51
2022/07/09 00:10:27;;;;;;;11.65;10.40;;;;;;;;;;2081078;28;20258;-55
2022/07/09 00:11:27;;;;;;;11.30;9.55;;;;;;;;;;2081064;28;20179;-52
2022/07/09 00:12:28;;;;;;;12.98;9.88;;;;;;;;;;2081252;28;20164;-53
2022/07/09 00:13:28;;;;;;;14.10;10.70;;;;;;;;;;2081400;28;20164;-55
2022/07/09 00:14:29;;;;;;;14.80;10.88;;;;;;;;;;2080356;28;20187;-53
2022/07/09 00:15:29;;;;;;;13.25;10.82;;;;;;;;;;2081139;28;20210;-54
2022/07/09 00:16:30;;;;;;;16.48;10.68;;;;;;;;;;2081789;28;20269;-55
2022/07/09 00:17:31;;;;;;;14.43;10.07;;;;;;;;;;2082838;28;20219;-53
2022/07/09 00:18:31;;;;;;;14.88;10.93;;;;;;;;;;2083417;28;20227;-53
2022/07/09 00:19:31;;;;;;;11.95;10.00;;;;;;;;;;2083473;28;20180;-53
2022/07/09 00:20:32;;;;;;;12.68;10.32;;;;;;;;;;2082318;28;20179;-50
2022/07/09 00:21:32;;;;;;;13.20;10.35;;;;;;;;;;2074960;28;20192;-53
2022/07/09 00:22:32;;;;;;;13.88;10.50;;;;;;;;;;2084432;28;20164;-52
2022/07/09 00:23:33;;;;;;;13.77;9.80;;;;;;;;;;2084911;28;20208;-54
2022/07/09 00:24:33;;;;;;;14.55;10.82;;;;;;;;;;2084034;28;20164;-54
2022/07/09 00:25:34;;;;;;;14.00;10.57;;;;;;;;;;2085030;28;20200;-53
2022/07/09 00:26:34;;;;;;;14.77;11.05;;;;;;;;;;2084651;28;20182;-54
2022/07/09 00:27:34;;;;;;;12.07;9.88;;;;;;;;;;2084341;28;20625;-50
2022/07/09 00:28:35;;;;;;;11.68;10.07;;;;;;;;;;2084754;28;20172;-53
2022/07/09 00:29:35;;;;;;;12.00;9.85;;;;;;;;;;2084295;28;20168;-54
2022/07/09 00:30:35;;;;;;;13.88;10.40;;;;;;;;;;2083764;28;20170;-53
2022/07/09 00:31:36;;;;;;;12.80;9.65;;;;;;;;;;2083718;28;20254;-55
2022/07/09 00:32:36;;;;;;;12.55;9.88;;;;;;;;;;2084551;28;20165;-56
2022/07/09 00:33:36;;;;;;;10.73;9.55;;;;;;;;;;2084389;28;20239;-54
2022/07/09 00:34:36;;;;;;;10.55;9.45;;;;;;;;;;2083653;28;20176;-55
2022/07/09 00:35:37;;;;;;;9.52;8.63;;;;;;;;;;2083154;28;20179;-55
2022/07/09 00:36:37;;;;;;;15.52;9.57;;;;;;;;;;2084128;28;20184;-55
2022/07/09 00:37:37;;;;;;;10.85;9.30;;;;;;;;;;2084366;28;20515;-53
2022/07/09 00:38:38;;;;;;;13.10;9.38;;;;;;;;;;2083964;28;20176;-57
2022/07/09 00:39:38;;;;;;;13.15;9.07;;;;;;;;;;2083548;28;20243;-55
2022/07/09 00:40:39;;;;;;;12.45;9.80;;;;;;;;;;2084016;28;20180;-52
2022/07/09 00:41:39;;;;;;;11.73;9.25;;;;;;;;;;2084235;28;20263;-55
2022/07/09 00:42:39;;;;;;;10.50;8.93;;;;;;;;;;2083123;28;20579;-59
2022/07/09 00:43:45;;;;;;;10.32;9.25;;;;;;;;;;2082694;28;20590;-55
2022/07/09 00:44:46;;;;;;;14.18;9.82;;;;;;;;;;2081807;28;20149;-56
2022/07/09 00:45:47;;;;;;;11.20;9.00;;;;;;;;;;2081979;28;20180;-55
2022/07/09 00:46:47;;;;;;;12.65;9.02;;;;;;;;;;2082128;28;20207;-55
2022/07/09 00:47:48;;;;;;;12.48;9.80;;;;;;;;;;2083834;28;20179;-55
2022/07/09 00:48:48;;;;;;;9.73;8.73;;;;;;;;;;2084007;28;20167;-56
2022/07/09 00:49:49;;;;;;;11.25;8.77;;;;;;;;;;2084163;28;20226;-53
2022/07/09 00:50:50;;;;;;;12.63;8.95;;;;;;;;;;2078358;28;20165;-55
2022/07/09 00:51:50;;;;;;;12.27;8.80;;;;;;;;;;2084563;28;20199;-52
2022/07/09 00:52:50;;;;;;;12.68;8.57;;;;;;;;;;2084055;28;20507;-52
2022/07/09 00:53:51;;;;;;;8.60;7.75;;;;;;;;;;2084365;28;20168;-55
2022/07/09 00:54:52;;;;;;;8.88;7.95;;;;;;;;;;2083109;28;20176;-55
2022/07/09 00:55:53;;;;;;;12.23;8.57;;;;;;;;;;2083283;28;20172;-56
2022/07/09 00:56:53;;;;;;;10.02;8.25;;;;;;;;;;2080335;28;20184;-55
2022/07/09 00:57:54;;;;;;;8.88;7.93;;;;;;;;;;2079319;28;20586;-55
2022/07/09 00:58:55;;;;;;;13.48;8.38;;;;;;;;;;2079696;28;20187;-54
2022/07/09 00:59:56;;;;;;;11.05;8.95;;;;;;;;;;2083749;28;20218;-56
2022/07/09 01:00:57;;;;;;;10.73;9.57;;;;;;;;;;2083541;28;20226;-55
2022/07/09 01:01:57;;;;;;;11.32;8.75;;;;;;;;;;2084657;28;20310;-52
2022/07/09 01:02:57;;;;;;;9.07;7.78;;;;;;;;;;2083622;28;20172;-56
2022/07/09 01:03:58;;;;;;;10.20;8.30;;;;;;;;;;2083135;28;20670;-53
2022/07/09 01:04:58;;;;;;;11.73;9.02;;;;;;;;;;2082641;28;20168;-56
2022/07/09 01:05:58;;;;;;;14.02;8.32;;;;;;;;;;2080183;28;20171;-56
2022/07/09 01:06:59;;;;;;;9.40;8.40;;;;;;;;;;2076252;28;20272;-56
2022/07/09 01:07:59;;;;;;;10.77;7.68;;;;;;;;;;2080250;28;20545;-56
2022/07/09 01:09:00;;;;;;;12.15;8.00;;;;;;;;;;2075467;28;20524;-56
2022/07/09 01:10:01;;;;;;;10.40;8.45;;;;;;;;;;2075837;28;20281;-55
2022/07/09 01:11:01;;;;;;;15.98;8.77;;;;;;;;;;2076352;28;20208;-54
2022/07/09 01:12:02;;;;;;;8.88;8.00;;;;;;;;;;2077245;28;20172;-53
2022/07/09 01:13:03;;;;;;;8.65;7.85;;;;;;;;;;2084060;28;20161;-56
2022/07/09 01:14:04;;;;;;;11.82;8.57;;;;;;;;;;2083827;28;20183;-53
2022/07/09 01:15:04;;;;;;;9.10;7.85;;;;;;;;;;2084851;28;20180;-53
2022/07/09 01:16:10;;;;;;;11.50;7.68;;;;;;;;;;2084447;28;20168;-55
2022/07/09 01:17:11;;;;;;;9.60;7.85;;;;;;;;;;2083446;28;20247;-56
2022/07/09 01:18:12;;;;;;;11.20;8.40;;;;;;;;;;2084287;28;20169;-54
2022/07/09 01:19:12;;;;;;;10.35;7.90;;;;;;;;;;2083439;28;20264;-55
2022/07/09 01:20:12;;;;;;;11.50;8.18;;;;;;;;;;2084368;28;20165;-56
2022/07/09 01:21:14;;;;;;;12.15;7.90;;;;;;;;;;2084875;28;20218;-57
2022/07/09 01:22:14;;;;;;;10.68;8.48;;;;;;;;;;2084706;28;20176;-54
2022/07/09 01:23:14;;;;;;;12.38;8.35;;;;;;;;;;2083475;28;20213;-53
2022/07/09 01:24:15;;;;;;;9.07;8.07;;;;;;;;;;2081539;28;20164;-52
2022/07/09 01:25:18;;;;;;;13.98;9.02;;;;;;;;;;2082207;28;20161;-54
2022/07/09 01:26:22;;;;;;;9.35;8.50;;;;;;;;;;2082380;28;20149;-51
2022/07/09 01:27:22;;;;;;;10.38;8.68;;;;;;;;;;2083414;28;20196;-51
2022/07/09 01:28:22;;;;;;;12.63;8.18;;;;;;;;;;2082212;28;20201;-51
2022/07/09 01:29:23;;;;;;;8.93;8.02;;;;;;;;;;2081447;28;20278;-53
2022/07/09 01:30:25;;;;;;;10.82;9.73;;;;;;;;;;2081932;28;20165;-51
2022/07/09 01:31:25;;;;;;;9.65;8.48;;;;;;;;;;2082257;28;20180;-54
2022/07/09 01:32:25;;;;;;;14.45;9.15;;;;;;;;;;2082267;28;20164;-53
2022/07/09 01:33:26;;;;;;;13.32;9.05;;;;;;;;;;2081629;28;20168;-53
2022/07/09 01:34:26;;;;;;;10.95;8.80;;;;;;;;;;2081067;28;20527;-52
2022/07/09 01:35:27;;;;;;;12.63;9.18;;;;;;;;;;2081313;28;20234;-53
2022/07/09 01:36:27;;;;;;;11.85;9.10;;;;;;;;;;2081754;28;20223;-54
2022/07/09 01:37:27;;;;;;;12.93;9.80;;;;;;;;;;2082258;28;20199;-55
2022/07/09 01:38:28;;;;;;;11.98;9.68;;;;;;;;;;2081807;28;20164;-54
2022/07/09 01:39:28;;;;;;;11.10;10.00;;;;;;;;;;2082139;28;20180;-54
2022/07/09 01:40:29;;;;;;;13.63;9.50;;;;;;;;;;2082066;28;20243;-56
2022/07/09 01:41:30;;;;;;;12.73;9.45;;;;;;;;;;2082269;28;20164;-54
2022/07/09 01:42:31;;;;;;;11.60;9.30;;;;;;;;;;2082118;28;20231;-55
2022/07/09 01:43:33;;;;;;;12.80;9.38;;;;;;;;;;2081916;28;20187;-56
2022/07/09 01:44:33;;;;;;;12.50;9.55;;;;;;;;;;2081129;28;20180;-56
2022/07/09 01:45:33;;;;;;;13.68;9.32;;;;;;;;;;2082034;28;20164;-54
2022/07/09 01:46:35;;;;;;;17.67;10.23;;;;;;;;;;2081963;28;20161;-53
2022/07/09 01:47:35;;;;;;;11.32;9.63;;;;;;;;;;2082173;28;20172;-56
2022/07/09 01:48:35;;;;;;;13.57;9.23;;;;;;;;;;2081731;28;20159;-56
2022/07/09 01:49:36;;;;;;;10.55;9.57;;;;;;;;;;2082139;28;20172;-54
2022/07/09 01:50:42;;;;;;;11.40;9.38;;;;;;;;;;2076441;28;20169;-52
2022/07/09 01:51:43;;;;;;;14.45;10.48;;;;;;;;;;2079995;28;20176;-54
2022/07/09 01:52:43;;;;;;;12.23;10.75;;;;;;;;;;2081974;28;20175;-55
2022/07/09 01:53:45;;;;;;;13.35;10.85;;;;;;;;;;2082032;28;20203;-53
2022/07/09 01:54:45;;;;;;;12.15;10.90;;;;;;;;;;2080672;28;20256;-52
2022/07/09 01:55:45;;;;;;;12.48;11.10;;;;;;;;;;2081990;28;20195;-52
2022/07/09 01:56:46;;;;;;;12.10;10.90;;;;;;;;;;2076153;28;20544;-55
2022/07/09 01:57:46;;;;;;;15.40;10.45;;;;;;;;;;2081848;28;20251;-57
2022/07/09 01:58:46;;;;;;;12.45;10.45;;;;;;;;;;2081687;28;20191;-52
2022/07/09 01:59:47;;;;;;;14.85;11.45;;;;;;;;;;2081850;28;20196;-51
2022/07/09 02:00:48;;;;;;;13.65;10.45;;;;;;;;;;2081693;28;20177;-54
2022/07/09 02:01:49;;;;;;;14.88;10.95;;;;;;;;;;2080050;28;20608;-54
2022/07/09 02:02:49;;;;;;;14.32;11.60;;;;;;;;;;2074995;28;20176;-55
2022/07/09 02:03:49;;;;;;;14.57;11.68;;;;;;;;;;2081316;28;20287;-52
2022/07/09 02:04:50;;;;;;;11.77;10.57;;;;;;;;;;2080827;28;20191;-54
2022/07/09 02:05:50;;;;;;;13.27;11.98;;;;;;;;;;2081905;28;20171;-54
2022/07/09 02:06:50;;;;;;;16.08;10.93;;;;;;;;;;2082010;28;20164;-56
2022/07/09 02:07:51;;;;;;;13.23;10.35;;;;;;;;;;2082312;28;20187;-54
2022/07/09 02:08:52;;;;;;;14.95;10.93;;;;;;;;;;2082056;28;20671;-55
2022/07/09 02:09:52;;;;;;;14.10;10.60;;;;;;;;;;2081750;28;20164;-51
2022/07/09 02:10:54;;;;;;;13.27;11.85;;;;;;;;;;2082000;28;20188;-54
2022/07/09 02:11:54;;;;;;;14.98;11.35;;;;;;;;;;2081942;28;20203;-53
2022/07/09 02:12:55;;;;;;;14.73;10.90;;;;;;;;;;2081964;28;20164;-54
2022/07/09 02:13:55;;;;;;;17.67;11.48;;;;;;;;;;2081376;28;20182;-53
2022/07/09 02:14:56;;;;;;;17.90;11.50;;;;;;;;;;2081160;28;20172;-53
2022/07/09 02:15:56;;;;;;;13.18;11.80;;;;;;;;;;2081009;28;20303;-52
2022/07/09 02:16:56;;;;;;;12.95;11.20;;;;;;;;;;2081348;28;20196;-55
2022/07/09 02:17:57;;;;;;;13.30;11.45;;;;;;;;;;2081885;28;20223;-53
2022/07/09 02:18:57;;;;;;;13.35;11.73;;;;;;;;;;2081991;28;20204;-56
2022/07/09 02:19:57;;;;;;;12.98;10.85;;;;;;;;;;2080569;28;20179;-56
2022/07/09 02:20:58;;;;;;;16.05;11.82;;;;;;;;;;2082062;28;20168;-54
2022/07/09 02:21:58;;;;;;;18.38;12.00;;;;;;;;;;2081886;28;20187;-53
2022/07/09 02:22:59;;;;;;;14.38;11.60;;;;;;;;;;2082103;28;20176;-56
2022/07/09 02:23:59;;;;;;;18.58;12.60;;;;;;;;;;2080561;28;20246;-55
2022/07/09 02:25:00;;;;;;;15.68;12.43;;;;;;;;;;2081121;28;20175;-53
2022/07/09 02:26:00;;;;;;;15.10;12.80;;;;;;;;;;2082212;28;20172;-55
2022/07/09 02:27:00;;;;;;;15.65;12.18;;;;;;;;;;2081891;28;20214;-53
2022/07/09 02:28:01;;;;;;;18.80;11.88;;;;;;;;;;2081927;28;20176;-52
2022/07/09 02:29:02;;;;;;;17.83;12.18;;;;;;;;;;2081969;28;20174;-53
2022/07/09 02:30:03;;;;;;;15.20;12.02;;;;;;;;;;2081626;28;20164;-55
2022/07/09 02:31:03;;;;;;;14.45;11.95;;;;;;;;;;2082099;28;20173;-55
2022/07/09 02:32:03;;;;;;;19.58;12.95;;;;;;;;;;2081912;28;20168;-52
2022/07/09 02:33:04;;;;;;;15.15;12.65;;;;;;;;;;2082153;28;20263;-55
2022/07/09 02:34:05;;;;;;;16.65;12.27;;;;;;;;;;2080994;28;20600;-56
2022/07/09 02:35:05;;;;;;;16.48;12.75;;;;;;;;;;2081908;28;20163;-55
2022/07/09 02:36:06;;;;;;;16.10;12.25;;;;;;;;;;2082096;28;20220;-52
2022/07/09 02:37:06;;;;;;;16.55;12.85;;;;;;;;;;2082213;28;20180;-54
2022/07/09 02:38:07;;;;;;;15.48;12.90;;;;;;;;;;2082250;28;20251;-54
2022/07/09 02:39:07;;;;;;;18.42;13.18;;;;;;;;;;2084350;28;20180;-53
2022/07/09 02:40:08;;;;;;;15.07;12.00;;;;;;;;;;2086615;28;20259;-53
2022/07/09 02:41:08;;;;;;;17.27;13.38;;;;;;;;;;2085398;28;20259;-56
2022/07/09 02:42:08;;;;;;;18.77;13.20;;;;;;;;;;2081368;28;20307;-53
2022/07/09 02:43:09;;;;;;;15.25;12.55;;;;;;;;;;2081051;28;20649;-51
2022/07/09 02:44:09;;;;;;;18.38;13.23;;;;;;;;;;2072139;28;20648;-56
2022/07/09 02:45:10;;;;;;;20.45;15.52;;;;;;;;;;2079998;28;20540;-54
2022/07/09 02:46:11;;;;;;;19.75;14.43;;;;;;;;;;2081832;28;20183;-54
2022/07/09 02:47:11;;;;;;;15.43;13.82;;;;;;;;;;2081674;28;20609;-53
2022/07/09 02:48:11;;;;;;;19.67;14.18;;;;;;;;;;2081794;28;20540;-54
2022/07/09 02:49:12;;;;;;;16.58;14.65;;;;;;;;;;2081622;28;20157;-54
2022/07/09 02:50:12;;;;;;;18.50;14.15;;;;;;;;;;2077704;28;20204;-52
2022/07/09 02:51:12;;;;;;;18.33;14.63;;;;;;;;;;2078840;28;20176;-52
2022/07/09 02:52:12;;;;;;;17.38;14.40;;;;;;;;;;2082250;28;20175;-56
2022/07/09 02:53:13;;;;;;;20.98;17.30;;;;;;;;;;2081791;28;20167;-55
2022/07/09 02:54:13;;;;;;;22.85;15.52;;;;;;;;;;2081003;28;20180;-54
2022/07/09 02:55:13;;;;;;;22.83;16.33;;;;;;;;;;2081773;28;20179;-55
2022/07/09 02:56:14;;;;;;;25.52;17.27;;;;;;;;;;2081495;28;20176;-55
2022/07/09 02:57:14;;;;;;;22.75;16.95;;;;;;;;;;2081103;28;20222;-52
2022/07/09 02:58:14;;;;;;;25.10;17.20;;;;;;;;;;2081396;28;20156;-55
2022/07/09 02:59:15;;;;;;;21.75;18.20;;;;;;;;;;2081072;28;20228;-52
2022/07/09 03:00:15;;;;;;;25.13;16.70;;;;;;;;;;2081555;28;20203;-57
2022/07/09 03:01:15;;;;;;;23.70;16.77;;;;;;;;;;2081948;28;20156;-55
2022/07/09 03:02:16;;;;;;;26.08;17.05;;;;;;;;;;2081922;28;20175;-56
2022/07/09 03:03:16;;;;;;;29.77;17.27;;;;;;;;;;2081690;28;20160;-55
2022/07/09 03:04:17;;;;;;;25.80;17.45;;;;;;;;;;2080766;28;20168;-54
2022/07/09 03:05:17;;;;;;;22.83;17.60;;;;;;;;;;2080988;28;20169;-54
2022/07/09 03:06:17;;;;;;;26.35;16.88;;;;;;;;;;2075603;28;20165;-56
2022/07/09 03:07:18;;;;;;;21.23;17.73;;;;;;;;;;2079247;28;20268;-52
2022/07/09 03:08:21;;;;;;;25.83;17.63;;;;;;;;;;2075335;28;20226;-56
2022/07/09 03:09:21;;;;;;;21.30;17.88;;;;;;;;;;2073048;28;20157;-55
2022/07/09 03:10:22;;;;;;;23.08;17.27;;;;;;;;;;2080387;28;20172;-56
2022/07/09 03:11:22;;;;;;;27.02;18.75;;;;;;;;;;2081593;28;20172;-54
2022/07/09 03:12:22;;;;;;;26.52;17.98;;;;;;;;;;2081634;28;20160;-53
2022/07/09 03:13:23;;;;;;;22.55;17.55;;;;;;;;;;2081685;28;20626;-53
2022/07/09 03:14:24;;;;;;;20.92;17.60;;;;;;;;;;2079958;28;20655;-52
2022/07/09 03:15:24;;;;;;;28.10;18.33;;;;;;;;;;2080774;28;20179;-51
2022/07/09 03:16:24;;;;;;;27.27;19.08;;;;;;;;;;2081426;28;20165;-50
2022/07/09 03:17:26;;;;;;;29.55;19.13;;;;;;;;;;2081546;28;20180;-52
2022/07/09 03:18:27;;;;;;;25.65;18.48;;;;;;;;;;2081116;28;20667;-54
2022/07/09 03:19:27;;;;;;;27.80;18.25;;;;;;;;;;2080786;28;20192;-53
2022/07/09 03:20:27;;;;;;;29.38;20.65;;;;;;;;;;2080643;28;20175;-53
2022/07/09 03:21:28;;;;;;;30.55;19.77;;;;;;;;;;2081785;28;20192;-54
2022/07/09 03:22:28;;;;;;;26.08;19.65;;;;;;;;;;2081592;28;20195;-53
2022/07/09 03:23:28;;;;;;;26.45;18.70;;;;;;;;;;2081607;28;20582;-56
2022/07/09 03:24:29;;;;;;;29.50;20.75;;;;;;;;;;2080765;28;20627;-53
2022/07/09 03:25:29;;;;;;;27.27;19.25;;;;;;;;;;2081520;28;20168;-56
2022/07/09 03:26:31;;;;;;;26.98;20.15;;;;;;;;;;2081557;28;20165;-56
2022/07/09 03:27:32;;;;;;;34.92;21.55;;;;;;;;;;2087122;22;20282;-55
2022/07/09 03:28:32;;;;;;;26.63;20.20;;;;;;;;;;2080261;28;20188;-53
2022/07/09 03:29:33;;;;;;;27.20;20.95;;;;;;;;;;2080650;28;20184;-57
2022/07/09 03:30:33;;;;;;;29.27;21.00;;;;;;;;;;2077841;28;20204;-57
2022/07/09 03:31:34;;;;;;;32.05;21.48;;;;;;;;;;2080811;28;20188;-58
2022/07/09 03:32:34;;;;;;;26.90;20.65;;;;;;;;;;2080490;28;20645;-58
2022/07/09 03:33:34;;;;;;;28.92;21.70;;;;;;;;;;2081525;28;20187;-57
2022/07/09 03:34:35;;;;;;;33.80;22.88;;;;;;;;;;2080722;28;20179;-56
2022/07/09 03:35:35;;;;;;;37.50;24.98;;;;;;;;;;2080736;28;20212;-52
2022/07/09 03:36:36;;;;;;;30.42;21.83;;;;;;;;;;2063379;28;20196;-52
2022/07/09 03:37:36;;;;;;;33.55;21.90;;;;;;;;;;2064097;28;20189;-53
2022/07/09 03:38:36;;;;;;;37.28;22.83;;;;;;;;;;2080213;28;20262;-52
2022/07/09 03:39:37;;;;;;;33.13;22.73;;;;;;;;;;2064333;28;20185;-52
2022/07/09 03:40:37;;;;;;;29.98;21.98;;;;;;;;;;2072471;28;20175;-51
2022/07/09 03:41:37;;;;;;;29.95;22.10;;;;;;;;;;2072475;28;20699;-51
2022/07/09 03:42:38;;;;;;;32.80;22.10;;;;;;;;;;2072931;28;20284;-53
2022/07/09 03:43:38;;;;;;;38.70;22.15;;;;;;;;;;2072390;28;20220;-54
2022/07/09 03:44:38;;;;;;;33.58;21.63;;;;;;;;;;2071354;28;20161;-53
2022/07/09 03:45:39;;;;;;;34.05;22.23;;;;;;;;;;2073264;28;20754;-56
2022/07/09 03:46:39;;;;;;;30.02;22.65;;;;;;;;;;2072671;28;20196;-54
2022/07/09 03:47:40;;;;;;;31.90;22.77;;;;;;;;;;2076589;28;20192;-55
2022/07/09 03:48:40;;;;;;;34.00;23.40;;;;;;;;;;2082027;28;20559;-55
2022/07/09 03:49:40;;;;;;;33.85;23.58;;;;;;;;;;2081979;28;20175;-56
2022/07/09 03:50:41;;;;;;;30.50;21.73;;;;;;;;;;2074262;28;20656;-57
2022/07/09 03:51:42;;;;;;;34.22;23.08;;;;;;;;;;2073902;28;20222;-57
2022/07/09 03:52:43;;;;;;;32.78;22.25;;;;;;;;;;2074342;28;20601;-57
2022/07/09 03:53:43;;;;;;;30.73;22.58;;;;;;;;;;2071326;28;20259;-55
2022/07/09 03:54:44;;;;;;;29.23;22.63;;;;;;;;;;2067594;28;20185;-51
2022/07/09 03:55:44;;;;;;;30.83;21.67;;;;;;;;;;2058726;28;20726;-52
2022/07/09 03:56:44;;;;;;;26.17;21.33;;;;;;;;;;2072929;28;20217;-51
2022/07/09 03:57:45;;;;;;;26.67;20.92;;;;;;;;;;2076081;28;20199;-57
2022/07/09 03:58:46;;;;;;;30.95;21.60;;;;;;;;;;2075548;28;20641;-55
2022/07/09 03:59:46;;;;;;;29.20;20.60;;;;;;;;;;2083157;28;20220;-50
2022/07/09 04:00:47;;;;;;;27.00;19.67;;;;;;;;;;2083249;28;20188;-52
2022/07/09 04:01:47;;;;;;;23.63;18.75;;;;;;;;;;2072238;28;20169;-56
2022/07/09 04:02:47;;;;;;;27.70;20.45;;;;;;;;;;2066449;28;20161;-58
2022/07/09 04:03:48;;;;;;;26.02;19.05;;;;;;;;;;2074337;28;20651;-57
2022/07/09 04:04:48;;;;;;;30.25;20.73;;;;;;;;;;2071865;28;21170;-54
2022/07/09 04:05:48;;;;;;;31.42;19.42;;;;;;;;;;2075457;28;20408;-57
2022/07/09 04:06:49;;;;;;;27.35;20.35;;;;;;;;;;2079476;28;20208;-53
2022/07/09 04:07:49;;;;;;;28.15;19.98;;;;;;;;;;2085216;28;20196;-57
2022/07/09 04:08:50;;;;;;;26.55;18.88;;;;;;;;;;2084910;28;20168;-56
2022/07/09 04:09:50;;;;;;;24.40;18.27;;;;;;;;;;2086048;28;20196;-55
2022/07/09 04:10:51;;;;;;;26.60;19.58;;;;;;;;;;2083325;28;20671;-55
2022/07/09 04:11:51;;;;;;;27.73;20.85;;;;;;;;;;2082723;28;20683;-54
2022/07/09 04:12:52;;;;;;;26.50;18.58;;;;;;;;;;2082041;28;20184;-54
2022/07/09 04:13:52;;;;;;;23.98;18.58;;;;;;;;;;2082785;28;20160;-50
2022/07/09 04:14:52;;;;;;;25.65;18.02;;;;;;;;;;2080157;28;20267;-50
2022/07/09 04:15:53;;;;;;;24.63;17.58;;;;;;;;;;2074750;28;20169;-55
2022/07/09 04:16:53;;;;;;;24.40;17.92;;;;;;;;;;2075080;28;20169;-51
2022/07/09 04:17:54;;;;;;;22.88;17.42;;;;;;;;;;2074024;28;20200;-50
2022/07/09 04:18:54;;;;;;;28.58;18.25;;;;;;;;;;2074551;28;20169;-51
2022/07/09 04:19:54;;;;;;;22.48;16.90;;;;;;;;;;2077717;28;20168;-51
2022/07/09 04:20:56;;;;;;;24.33;18.00;;;;;;;;;;2083306;28;20167;-54
2022/07/09 04:21:57;;;;;;;26.27;17.27;;;;;;;;;;2082783;28;20168;-50
2022/07/09 04:22:57;;;;;;;21.50;17.73;;;;;;;;;;2082084;28;20558;-52
2022/07/09 04:23:57;;;;;;;26.85;17.90;;;;;;;;;;2081584;28;20187;-53
2022/07/09 04:24:58;;;;;;;23.15;16.27;;;;;;;;;;2079904;28;20671;-53
2022/07/09 04:25:58;;;;;;;26.95;17.23;;;;;;;;;;2075367;28;20225;-51
2022/07/09 04:26:58;;;;;;;22.63;18.42;;;;;;;;;;2072723;28;20157;-50
2022/07/09 04:27:59;;;;;;;18.77;16.58;;;;;;;;;;2074959;28;20201;-55
2022/07/09 04:28:59;;;;;;;23.38;17.77;;;;;;;;;;2075043;28;20188;-50
2022/07/09 04:29:59;;;;;;;22.20;16.50;;;;;;;;;;2074812;28;20648;-56
2022/07/09 04:31:00;;;;;;;22.48;17.45;;;;;;;;;;2074676;28;20157;-49
2022/07/09 04:32:01;;;;;;;23.65;17.42;;;;;;;;;;2074994;28;20503;-57
2022/07/09 04:33:01;;;;;;;22.58;17.30;;;;;;;;;;2074405;28;20219;-54
2022/07/09 04:34:02;;;;;;;21.17;16.90;;;;;;;;;;2064969;28;20205;-55
2022/07/09 04:35:02;;;;;;;22.38;16.63;;;;;;;;;;2069151;28;20172;-50
2022/07/09 04:36:03;;;;;;;22.92;16.98;;;;;;;;;;2081061;28;20427;-53
2022/07/09 04:37:03;;;;;;;24.92;18.15;;;;;;;;;;2078605;28;20177;-54
2022/07/09 04:38:04;;;;;;;22.17;17.02;;;;;;;;;;2073617;28;20223;-56
2022/07/09 04:39:04;;;;;;;21.30;17.33;;;;;;;;;;2073899;28;20548;-52
2022/07/09 04:40:05;;;;;;;23.38;16.20;;;;;;;;;;2074453;28;20645;-52
2022/07/09 04:41:05;;;;;;;22.08;17.17;;;;;;;;;;2073799;28;20307;-53
2022/07/09 04:42:05;;;;;;;25.50;17.67;;;;;;;;;;2073615;28;20204;-52
2022/07/09 04:43:06;;;;;;;24.00;17.80;;;;;;;;;;2073994;28;20161;-54
2022/07/09 04:44:07;;;;;;;20.70;16.15;;;;;;;;;;2073447;28;20192;-50
2022/07/09 04:45:07;;;;;;;21.73;17.10;;;;;;;;;;2077175;28;20168;-49
2022/07/09 04:46:07;;;;;;;19.70;16.02;;;;;;;;;;2081626;28;20168;-49
2022/07/09 04:47:08;;;;;;;20.67;16.48;;;;;;;;;;2082533;28;20172;-56
2022/07/09 04:48:09;;;;;;;22.48;17.63;;;;;;;;;;2082454;28;20160;-51
2022/07/09 04:49:09;;;;;;;22.85;17.45;;;;;;;;;;2082626;28;20183;-50
2022/07/09 04:50:10;;;;;;;20.33;17.20;;;;;;;;;;2069724;28;20185;-51
2022/07/09 04:51:11;;;;;;;23.70;16.27;;;;;;;;;;2065588;28;20201;-50
2022/07/09 04:52:16;;;;;;;22.77;16.98;;;;;;;;;;2074348;28;20168;-49
2022/07/09 04:53:16;;;;;;;21.05;17.80;;;;;;;;;;2074364;28;20645;-54
2022/07/09 04:54:17;;;;;;;21.90;16.45;;;;;;;;;;2072664;28;20181;-52
2022/07/09 04:55:17;;;;;;;18.45;15.57;;;;;;;;;;2078726;28;20194;-55
2022/07/09 04:56:17;;;;;;;19.50;16.17;;;;;;;;;;2080569;28;20234;-52
2022/07/09 04:57:18;;;;;;;20.25;16.20;;;;;;;;;;2073748;28;20729;-50
2022/07/09 04:58:18;;;;;;;22.13;15.93;;;;;;;;;;2073679;28;20180;-57
2022/07/09 04:59:19;;;;;;;18.65;15.13;;;;;;;;;;2074249;28;20207;-52
2022/07/09 05:00:19;;;;;;;21.45;15.05;;;;;;;;;;2074037;28;20161;-53
2022/07/09 05:01:20;;;;;;;19.38;14.40;;;;;;;;;;2074229;28;20193;-55
2022/07/09 05:02:21;;;;;;;18.60;14.98;;;;;;;;;;2074011;28;20523;-57
2022/07/09 05:03:21;;;;;;;19.80;14.35;;;;;;;;;;2074250;28;20199;-54
2022/07/09 05:04:21;;;;;;;21.83;15.05;;;;;;;;;;2073218;28;20169;-54
2022/07/09 05:05:23;;;;;;;18.60;14.18;;;;;;;;;;2080527;28;20166;-54
2022/07/09 05:06:23;;;;;;;20.60;13.82;;;;;;;;;;2081688;28;20559;-53
2022/07/09 05:07:24;;;;;;;18.20;13.77;;;;;;;;;;2081608;28;20263;-55
2022/07/09 05:08:24;;;;;;;18.80;13.40;;;;;;;;;;2079228;28;20173;-56
2022/07/09 05:09:24;;;;;;;19.02;14.05;;;;;;;;;;2075452;28;20252;-55
2022/07/09 05:10:25;;;;;;;16.45;13.63;;;;;;;;;;2079450;28;20172;-55
2022/07/09 05:11:25;;;;;;;19.08;12.63;;;;;;;;;;2074246;28;20280;-55
2022/07/09 05:12:25;;;;;;;19.02;11.95;;;;;;;;;;2074046;28;20169;-56
2022/07/09 05:13:26;;;;;;;11.85;10.45;;;;;;;;;;2074040;28;20323;-55
2022/07/09 05:14:26;;;;;;;13.82;11.23;;;;;;;;;;2072619;28;20248;-52
2022/07/09 05:15:27;;;;;;;14.70;11.90;;;;;;;;;;2075308;28;20173;-56
2022/07/09 05:16:27;;;;;;;14.32;11.32;;;;;;;;;;2082526;28;20165;-54
2022/07/09 05:17:28;;;;;;;14.45;12.27;;;;;;;;;;2082262;28;20417;-51
2022/07/09 05:18:30;;;;;;;17.00;11.95;;;;;;;;;;2082005;28;20183;-53
2022/07/09 05:19:30;;;;;;;14.20;11.00;;;;;;;;;;2080114;28;20168;-50
2022/07/09 05:20:31;;;;;;;13.43;11.45;;;;;;;;;;2074511;28;20161;-52
2022/07/09 05:21:31;;;;;;;13.75;10.65;;;;;;;;;;2074642;28;20173;-54
2022/07/09 05:22:32;;;;;;;11.55;10.43;;;;;;;;;;2066389;28;20189;-57
2022/07/09 05:23:33;;;;;;;13.82;11.00;;;;;;;;;;2066720;28;20178;-56
2022/07/09 05:24:33;;;;;;;12.55;10.95;;;;;;;;;;2074204;28;20169;-57
2022/07/09 05:25:33;;;;;;;12.45;10.98;;;;;;;;;;2074647;28;20169;-52
2022/07/09 05:26:35;;;;;;;12.10;10.27;;;;;;;;;;2074738;28;20554;-55
2022/07/09 05:27:45;;;;;;;12.70;10.05;;;;;;;;;;2074458;28;20219;-49
2022/07/09 05:28:46;;;;;;;14.40;10.18;;;;;;;;;;2074392;28;20172;-52
2022/07/09 05:29:46;;;;;;;10.05;9.05;;;;;;;;;;2076647;28;20188;-53
2022/07/09 05:30:46;;;;;;;10.23;9.18;;;;;;;;;;2075033;28;20214;-54
2022/07/09 05:31:47;;;;;;;11.38;9.65;;;;;;;;;;2074081;28;20171;-55
2022/07/09 05:32:47;;;;;;;12.43;9.30;;;;;;;;;;2074301;28;20173;-51
2022/07/09 05:33:47;;;;;;;12.70;9.68;;;;;;;;;;2076602;28;20169;-49
2022/07/09 05:34:48;;;;;;;11.88;9.68;;;;;;;;;;2072662;28;20266;-59
2022/07/09 05:35:48;;;;;;;10.93;9.07;;;;;;;;;;2070387;28;20177;-56
2022/07/09 05:36:48;;;;;;;12.25;9.43;;;;;;;;;;2073114;28;20578;-57
2022/07/09 05:37:49;;;;;;;10.45;9.38;;;;;;;;;;2072604;28;20736;-54
2022/07/09 05:38:49;;;;;;;11.45;8.57;;;;;;;;;;2074792;28;20199;-56
2022/07/09 05:39:50;;;;;;;10.93;8.48;;;;;;;;;;2075084;28;20173;-56
2022/07/09 05:40:50;;;;;;;10.77;9.65;;;;;;;;;;2074141;28;20177;-57
2022/07/09 05:41:51;;;;;;;10.00;8.10;;;;;;;;;;2075749;28;20172;-55
2022/07/09 05:42:51;;;;;;;9.63;8.63;;;;;;;;;;2079616;28;20199;-55
2022/07/09 05:43:52;;;;;;;8.90;7.97;;;;;;;;;;2078157;28;20721;-57
2022/07/09 05:44:52;;;;;;;8.32;7.55;;;;;;;;;;2076782;28;20225;-56
2022/07/09 05:45:52;;;;;;;10.18;8.52;;;;;;;;;;2076408;28;20173;-56
2022/07/09 05:46:53;;;;;;;11.00;7.65;;;;;;;;;;2076004;28;20177;-54
2022/07/09 05:47:53;;;;;;;8.68;7.80;;;;;;;;;;2075122;28;20639;-55
2022/07/09 05:48:53;;;;;;;9.45;8.52;;;;;;;;;;2075522;28;20244;-56
2022/07/09 05:49:54;;;;;;;11.07;8.25;;;;;;;;;;2076237;28;20170;-55
2022/07/09 05:50:57;;;;;;;8.77;7.88;;;;;;;;;;2076278;28;20172;-52
2022/07/09 05:51:57;;;;;;;7.90;7.20;;;;;;;;;;2074573;28;20215;-53
2022/07/09 05:52:57;;;;;;;10.50;7.72;;;;;;;;;;2074036;28;20172;-58
2022/07/09 05:53:58;;;;;;;10.90;7.20;;;;;;;;;;2073879;28;20177;-59